New Albin, Iowa
Current Conditions -  °F | °C
As of 1:55 AM on Friday 31 Oct 2014 (Local Time) from KY51 Reporting Station
Scattered Clouds Scattered Clouds  
Wind Chill: 22°   Ceiling: Unl
Heat Index: 33°   Visibility: 10mi
Dew Point: 17°   Wind: 17mph
Humidity: 53%   Direction: 330°NNW
Pressure: 30.2"   Gusts: 30mph
Location:  43.5°N, 91.29°W
Report Text: KY51 310655Z AUTO 33015G26KT 10SM SCT045 SCT050 01/M08 A3020 RMK AO1 T00051081
Loading
Personal Weather Stations






























Interactive Weather Map
Tropical Storm Tracking
New forecast layout! Learn more

10-Day Weather Forecast

Advertisements
Track Severe Weather on mobile